Groton New London Airport
KGON : now visible

Airfield :











YOU CAN JOIN US ON...

 
LOGIN :

Register | Disclaimer

   EN    FR    IT 

 









Legend :    VFR   Marginal VFR   IFR   Intensive IFR   Very Intensive IFR
Visi :
Ceiling :
>= 8 km
>= 3000ft
5 to 8 km
1000 to 3000 ft
1500m to 5 km
500 to 1000 ft
800 to 1500m
200 to 500 ft
< 800m
< 200 ft
Symbols :   Thunderstorms  Fog  Heavy snow  Heavy precipitations  Wind > 20 kt






- Airport Elevation : 9 ft
- IATA code : GON


KGON - Groton New London

CURRENT METAR :
  • 140556Z AUTO 01003KT 10SM SCT065 BKN080 OVC100 12/09 A3002 RMK AO2 SLP164 T01170094 10117 20089 58008 $

EXPIRED METARs :
  • 140456Z AUTO 00000KT 10SM FEW070 OVC085 11/09 A3004 RMK AO2 SLP172 T01110094 401940083 $
  • 140356Z AUTO 00000KT 10SM SCT060 SCT080 BKN120 11/08 A3003 RMK AO2 SLP168 T01060083 $

TAF KGON
Valid from the 14 at 06:00 until the 15 at 06:00 UTC


140532Z 1406/1506 VRB02KT P6SM VCSH FEW030 BKN060
FM140900 07004KT P6SM SCT015 BKN025
TEMPO 1410/1414 BKN015
FM141400 05005KT P6SM BKN025
FM141700 24006KT P6SM FEW040
FM150100 31006KT P6SM SKC
FM150400 34004KT P6SM SKC



MET'MAP, your aeronautical weather chart ! - Copyright ORBIFLY December 2007 - Disclaimer

ORBIFLY MET'MAP TEAM :

Programming & Development : Alexandra Zaïnal
Concept & Development : Baudouin d'Aumeries
Co-Development & Prog : Marc-Olivier Méhu
Technical & hardware support : Manuel Goepfert

Contact : metmap@orbifly.com




SOURCES & CREDITS :

   NOAA       Earth
Advisory